createdAt,value
2018-12-02T00:01:18.689Z,86.12
2018-12-02T00:03:49.688Z,86.83
2018-12-02T00:06:19.636Z,86.53
2018-12-02T00:08:48.703Z,85.08
2018-12-02T00:11:17.658Z,85.09
2018-12-02T00:13:46.588Z,85.31
2018-12-02T00:16:15.544Z,85.33
2018-12-02T00:18:46.494Z,83.81
2018-12-02T00:21:18.776Z,84.24
2018-12-02T00:23:48.675Z,83.58
2018-12-02T00:26:17.679Z,83.72
2018-12-02T00:28:46.640Z,83.56
2018-12-02T00:31:15.604Z,83.65
2018-12-02T00:33:44.920Z,82.82
2018-12-02T00:36:17.241Z,83.14
2018-12-02T00:38:46.177Z,82.26
2018-12-02T00:41:15.147Z,83.27
2018-12-02T00:43:44.149Z,82.18
2018-12-02T00:46:13.107Z,82.72
2018-12-02T00:48:42.032Z,82.75
2018-12-02T00:51:11.615Z,82.99
2018-12-02T00:53:43.730Z,83.14
2018-12-02T00:56:11.304Z,83.17
2018-12-02T00:58:40.669Z,82.95
2018-12-02T01:01:09.648Z,83.50
2018-12-02T01:03:38.589Z,83.72
2018-12-02T01:06:08.189Z,83.87
2018-12-02T01:08:40.368Z,84.13
2018-12-02T01:11:09.817Z,83.98
2018-12-02T01:13:39.095Z,83.96
2018-12-02T01:16:08.572Z,83.75
2018-12-02T01:18:37.624Z,83.53
2018-12-02T01:21:08.090Z,84.25
2018-12-02T01:23:40.984Z,84.18
2018-12-02T01:26:10.443Z,83.44
2018-12-02T01:28:39.713Z,84.22
2018-12-02T01:31:08.900Z,83.77
2018-12-02T01:33:38.241Z,83.52
2018-12-02T01:36:09.292Z,83.82
2018-12-02T01:38:42.049Z,83.14
2018-12-02T01:41:11.615Z,83.40
2018-12-02T01:43:40.957Z,82.94
2018-12-02T01:46:10.239Z,83.39
2018-12-02T01:48:39.418Z,83.55
2018-12-02T01:51:09.652Z,83.96
2018-12-02T01:53:40.781Z,85.09
2018-12-02T01:56:10.116Z,84.36
2018-12-02T01:58:39.508Z,85.32
2018-12-02T02:01:09.194Z,84.95
2018-12-02T02:03:38.464Z,84.98
2018-12-02T02:06:09.896Z,84.36
2018-12-02T02:08:40.145Z,84.34
2018-12-02T02:11:09.432Z,85.28
2018-12-02T02:13:38.757Z,85.49
2018-12-02T02:16:08.084Z,84.48
2018-12-02T02:18:37.375Z,84.79
2018-12-02T02:21:07.199Z,84.75
2018-12-02T02:23:38.343Z,85.54
2018-12-02T02:26:08.818Z,86.12
2018-12-02T02:28:38.023Z,85.73
2018-12-02T02:31:07.371Z,85.72
2018-12-02T02:33:36.764Z,86.06
2018-12-02T02:36:06.527Z,85.78
2018-12-02T02:38:38.932Z,86.13
2018-12-02T02:41:08.260Z,86.34
2018-12-02T02:43:37.551Z,86.72
2018-12-02T02:46:06.816Z,87.18
2018-12-02T02:48:36.097Z,87.65
2018-12-02T02:51:05.406Z,88.71
2018-12-02T02:53:36.602Z,88.79
2018-12-02T02:56:07.391Z,90.16
2018-12-02T02:58:36.763Z,90.54
2018-12-02T03:01:06.158Z,91.66
2018-12-02T03:03:35.421Z,91.48
2018-12-02T03:06:06.075Z,92.81
2018-12-02T03:08:37.644Z,92.42
2018-12-02T03:11:07.228Z,93.02
2018-12-02T03:13:36.511Z,93.94
2018-12-02T03:16:05.717Z,94.16
2018-12-02T03:18:36.275Z,94.32
2018-12-02T03:21:08.824Z,94.57
2018-12-02T03:23:40.068Z,95.04
2018-12-02T03:26:09.224Z,94.98
2018-12-02T03:28:38.568Z,95.47
2018-12-02T03:31:07.729Z,96.77
2018-12-02T03:33:37.203Z,97.00
2018-12-02T03:36:09.747Z,97.28
2018-12-02T03:38:38.902Z,97.48
2018-12-02T03:41:08.332Z,97.58
2018-12-02T03:43:37.596Z,97.98
2018-12-02T03:46:06.900Z,98.14
2018-12-02T03:48:37.934Z,98.47
2018-12-02T03:51:09.173Z,97.88
2018-12-02T03:53:38.575Z,97.55
2018-12-02T03:56:07.866Z,97.50
2018-12-02T03:58:37.223Z,97.45
2018-12-02T04:01:06.509Z,96.95
2018-12-02T04:03:35.787Z,96.84
2018-12-02T04:06:06.204Z,96.87
2018-12-02T04:08:37.433Z,96.43
2018-12-02T04:11:07.005Z,96.46
2018-12-02T04:13:36.305Z,96.90
2018-12-02T04:16:05.599Z,95.58
2018-12-02T04:18:34.773Z,96.52
2018-12-02T04:21:05.768Z,96.04
2018-12-02T04:23:35.803Z,95.33
2018-12-02T04:26:05.199Z,95.49
2018-12-02T04:28:34.579Z,94.50
2018-12-02T04:31:03.943Z,94.32
2018-12-02T04:33:33.322Z,93.71
2018-12-02T04:36:02.984Z,93.59
2018-12-02T04:38:34.890Z,93.18
2018-12-02T04:41:04.092Z,92.79
2018-12-02T04:43:33.328Z,93.01
2018-12-02T04:46:02.604Z,93.41
2018-12-02T04:48:31.794Z,92.40
2018-12-02T04:51:03.189Z,93.45
2018-12-02T04:53:34.025Z,92.84
2018-12-02T04:56:03.194Z,92.81
2018-12-02T04:58:32.518Z,92.73
2018-12-02T05:01:01.810Z,93.87
2018-12-02T05:03:30.967Z,93.58
2018-12-02T05:06:01.168Z,92.85
2018-12-02T05:08:32.596Z,92.57
2018-12-02T05:11:03.639Z,93.66
2018-12-02T05:13:32.922Z,92.91
2018-12-02T05:16:02.306Z,92.74
2018-12-02T05:18:31.619Z,92.20
2018-12-02T05:21:01.933Z,92.38
2018-12-02T05:23:33.935Z,92.96
2018-12-02T05:26:03.183Z,91.58
2018-12-02T05:28:32.489Z,91.06
2018-12-02T05:31:01.752Z,90.96
2018-12-02T05:33:31.109Z,91.47
2018-12-02T05:36:03.035Z,91.84
2018-12-02T05:38:32.842Z,92.51
2018-12-02T05:41:02.064Z,92.73
2018-12-02T05:43:31.345Z,93.46
2018-12-02T05:46:00.623Z,92.75
2018-12-02T05:48:30.180Z,91.84
2018-12-02T05:51:03.354Z,92.37
2018-12-02T05:53:33.918Z,92.51
2018-12-02T05:56:03.047Z,92.23
2018-12-02T05:58:32.250Z,92.47
2018-12-02T06:01:02.042Z,91.38
2018-12-02T06:03:34.629Z,91.73
2018-12-02T06:06:03.952Z,91.12
2018-12-02T06:08:33.237Z,90.49
2018-12-02T06:11:02.547Z,88.90
2018-12-02T06:13:31.870Z,89.80
2018-12-02T06:16:02.321Z,91.40
2018-12-02T06:18:35.289Z,92.87
2018-12-02T06:21:04.902Z,92.94
2018-12-02T06:23:34.192Z,93.72
2018-12-02T06:26:03.502Z,92.34
2018-12-02T06:28:32.874Z,90.77
2018-12-02T06:31:02.105Z,90.17
2018-12-02T06:33:33.565Z,89.95
2018-12-02T06:36:03.127Z,89.71
2018-12-02T06:38:32.310Z,89.82
2018-12-02T06:41:01.622Z,89.84
2018-12-02T06:43:30.920Z,90.28
2018-12-02T06:46:01.861Z,90.37
2018-12-02T06:48:32.792Z,90.89
2018-12-02T06:51:01.695Z,90.97
2018-12-02T06:53:30.571Z,91.52
2018-12-02T06:56:09.997Z,92.43
2018-12-02T06:58:52.388Z,93.48
2018-12-02T07:01:32.385Z,93.96
2018-12-02T07:04:21.106Z,95.06
2018-12-02T07:06:50.010Z,94.77
2018-12-02T07:09:19.009Z,95.16
2018-12-02T07:11:47.857Z,95.58
2018-12-02T07:14:19.153Z,95.57
2018-12-02T07:16:48.211Z,96.15
2018-12-02T07:19:24.388Z,96.64
2018-12-02T07:22:02.759Z,96.96
2018-12-02T07:24:35.694Z,97.63
2018-12-02T07:27:06.881Z,97.83
2018-12-02T07:29:36.159Z,98.42
2018-12-02T07:32:07.829Z,97.90
2018-12-02T07:34:39.707Z,97.59
2018-12-02T07:37:11.909Z,97.61
2018-12-02T07:39:53.492Z,97.83
2018-12-02T07:42:24.880Z,97.97
2018-12-02T07:44:54.198Z,98.55
2018-12-02T07:47:23.495Z,98.62
2018-12-02T07:49:52.398Z,99.53
2018-12-02T07:52:21.280Z,99.66
2018-12-02T07:54:52.897Z,99.80
2018-12-02T07:57:21.890Z,100.00
2018-12-02T07:59:51.094Z,100.00
2018-12-02T08:02:20.492Z,100.00
2018-12-02T08:04:55.143Z,100.00
2018-12-02T08:07:24.938Z,99.78
2018-12-02T08:09:54.225Z,99.85
2018-12-02T08:12:23.566Z,100.00
2018-12-02T08:14:53.993Z,99.94
2018-12-02T08:17:24.286Z,100.00
2018-12-02T08:19:53.210Z,100.00
2018-12-02T08:22:22.113Z,100.00
2018-12-02T08:24:50.999Z,100.00
2018-12-02T08:27:20.504Z,100.00
2018-12-02T08:29:51.834Z,100.00
2018-12-02T08:32:20.762Z,100.00
2018-12-02T08:34:49.646Z,100.00
2018-12-02T08:37:18.563Z,100.00
2018-12-02T08:39:47.573Z,100.00
2018-12-02T08:42:16.491Z,100.00
2018-12-02T08:44:45.398Z,100.00
2018-12-02T08:47:14.457Z,100.00
2018-12-02T08:49:45.121Z,100.00
2018-12-02T08:58:05.780Z,100.00
2018-12-02T09:00:34.704Z,100.00
2018-12-02T09:03:05.441Z,100.00
2018-12-02T09:05:34.734Z,100.00
2018-12-02T09:08:06.427Z,99.81
2018-12-02T09:10:35.318Z,98.45
2018-12-02T09:13:07.167Z,97.60
2018-12-02T09:15:36.075Z,98.05
2018-12-02T09:18:05.967Z,98.42
2018-12-02T09:20:38.338Z,99.06
2018-12-02T09:23:09.080Z,99.31
2018-12-02T09:25:38.372Z,99.01
2018-12-02T09:28:08.509Z,100.00
2018-12-02T09:30:38.055Z,100.00
2018-12-02T09:33:07.044Z,100.00
2018-12-02T09:35:36.864Z,100.00
2018-12-02T09:38:08.328Z,100.00
2018-12-02T09:40:37.217Z,100.00
2018-12-02T09:43:07.133Z,100.00
2018-12-02T09:45:36.146Z,100.00
2018-12-02T09:48:05.712Z,100.00
2018-12-02T09:50:37.009Z,100.00
2018-12-02T09:53:06.998Z,100.00
2018-12-02T09:55:37.834Z,100.00
2018-12-02T09:58:08.407Z,100.00
2018-12-02T10:00:37.325Z,100.00
2018-12-02T10:03:06.844Z,100.00
2018-12-02T10:05:39.139Z,100.00
2018-12-02T10:08:08.093Z,100.00
2018-12-02T10:10:36.968Z,100.00
2018-12-02T10:13:08.445Z,100.00
2018-12-02T10:15:38.427Z,100.00
2018-12-02T10:18:10.419Z,100.00
2018-12-02T10:20:39.618Z,100.00
2018-12-02T10:23:08.950Z,100.00
2018-12-02T10:25:37.900Z,100.00
2018-12-02T10:28:07.515Z,100.00
2018-12-02T10:30:38.826Z,100.00
2018-12-02T10:33:07.861Z,100.00
2018-12-02T10:35:38.168Z,100.00
2018-12-02T10:38:11.648Z,100.00
2018-12-02T10:40:40.956Z,100.00
2018-12-02T10:43:10.222Z,100.00
2018-12-02T10:45:39.838Z,100.00
2018-12-02T10:48:12.064Z,100.00
2018-12-02T10:50:41.019Z,100.00
2018-12-02T10:53:14.171Z,100.00
2018-12-02T10:55:48.901Z,100.00
2018-12-02T10:58:23.088Z,100.00
2018-12-02T11:01:00.246Z,100.00
2018-12-02T11:03:29.204Z,100.00
2018-12-02T11:05:58.112Z,100.00
2018-12-02T11:08:27.029Z,100.00
2018-12-02T11:10:56.075Z,100.00
2018-12-02T11:13:25.977Z,100.00
2018-12-02T11:15:55.029Z,100.00
2018-12-02T11:18:23.935Z,100.00
2018-12-02T11:20:52.970Z,100.00
2018-12-02T11:23:21.907Z,100.00
2018-12-02T11:25:51.978Z,100.00
2018-12-02T11:28:21.998Z,100.00
2018-12-02T11:30:50.961Z,100.00
2018-12-02T11:33:19.906Z,100.00
2018-12-02T11:35:49.332Z,100.00
2018-12-02T11:38:18.263Z,100.00
2018-12-02T11:40:47.262Z,100.00
2018-12-02T11:43:16.166Z,100.00
2018-12-02T11:45:45.066Z,100.00
2018-12-02T11:48:14.001Z,100.00
2018-12-02T11:50:42.891Z,100.00
2018-12-02T11:53:11.817Z,100.00
2018-12-02T11:55:40.842Z,100.00
2018-12-02T11:58:10.413Z,100.00
2018-12-02T12:00:41.874Z,100.00
2018-12-02T12:03:10.777Z,100.00
2018-12-02T12:05:39.853Z,100.00
2018-12-02T12:08:10.278Z,100.00
2018-12-02T12:10:39.215Z,100.00
2018-12-02T12:13:08.192Z,100.00
2018-12-02T12:15:37.755Z,100.00
2018-12-02T12:18:09.236Z,100.00
2018-12-02T12:20:43.403Z,100.00
2018-12-02T12:23:21.383Z,100.00
2018-12-02T12:25:50.698Z,100.00
2018-12-02T12:28:20.471Z,100.00
2018-12-02T12:30:50.482Z,100.00
2018-12-02T12:33:19.416Z,100.00
2018-12-02T12:35:51.687Z,100.00
2018-12-02T12:38:20.615Z,100.00
2018-12-02T12:40:51.344Z,100.00
2018-12-02T12:43:27.200Z,100.00
2018-12-02T12:45:56.222Z,100.00
2018-12-02T12:48:25.949Z,100.00
2018-12-02T12:50:55.023Z,100.00
2018-12-02T12:53:23.965Z,100.00
2018-12-02T12:55:53.754Z,100.00
2018-12-02T12:58:22.679Z,100.00
2018-12-02T13:00:51.745Z,100.00
2018-12-02T13:03:21.615Z,100.00
2018-12-02T13:05:50.703Z,100.00
2018-12-02T13:08:19.755Z,100.00
2018-12-02T13:10:48.966Z,100.00
2018-12-02T13:13:17.902Z,100.00
2018-12-02T13:15:46.860Z,100.00
2018-12-02T13:18:16.183Z,100.00
2018-12-02T13:20:52.525Z,100.00
2018-12-02T13:23:21.556Z,100.00
2018-12-02T13:25:50.491Z,100.00
2018-12-02T13:28:21.027Z,99.42
2018-12-02T13:30:50.075Z,99.40
2018-12-02T13:33:22.992Z,99.42
2018-12-02T13:35:52.706Z,99.37
2018-12-02T13:38:21.773Z,99.84
2018-12-02T13:40:51.098Z,99.49
2018-12-02T13:43:23.444Z,99.89
2018-12-02T13:45:54.041Z,99.37
2018-12-02T13:48:23.353Z,99.92
2018-12-02T13:50:56.372Z,99.12
2018-12-02T13:53:25.400Z,100.00
2018-12-02T13:55:54.296Z,99.62
2018-12-02T13:58:24.795Z,99.77
2018-12-02T14:00:58.353Z,99.40
2018-12-02T14:03:38.254Z,99.47
2018-12-02T14:06:07.652Z,98.66
2018-12-02T14:08:39.170Z,98.77
2018-12-02T14:11:07.284Z,98.53
2018-12-02T14:13:37.512Z,98.79
2018-12-02T14:16:16.705Z,98.65
2018-12-02T14:18:46.822Z,98.85
2018-12-02T14:21:17.867Z,98.29
2018-12-02T14:23:47.911Z,98.16
2018-12-02T14:26:18.855Z,98.11
2018-12-02T14:28:56.896Z,98.53
2018-12-02T14:31:26.766Z,97.84
2018-12-02T14:33:59.218Z,98.83
2018-12-02T14:36:30.299Z,98.73
2018-12-02T14:39:05.520Z,98.96
2018-12-02T14:41:38.453Z,99.56
2018-12-02T14:44:08.461Z,99.07
2018-12-02T14:46:38.378Z,99.49
2018-12-02T14:49:07.487Z,99.19
2018-12-02T14:51:36.438Z,98.99
2018-12-02T14:54:05.743Z,98.46
2018-12-02T14:56:34.792Z,98.49
2018-12-02T14:59:03.789Z,98.65
2018-12-02T15:01:32.933Z,98.68
2018-12-02T15:04:04.043Z,99.25
2018-12-02T15:06:32.968Z,98.63
2018-12-02T15:09:01.901Z,98.78
2018-12-02T15:11:30.943Z,99.38
2018-12-02T15:13:59.866Z,99.36
2018-12-02T15:16:28.815Z,98.98
2018-12-02T15:18:57.791Z,99.26
2018-12-02T15:21:26.719Z,98.33
2018-12-02T15:23:55.756Z,98.10
2018-12-02T15:26:26.939Z,99.05
2018-12-02T15:28:55.872Z,98.83
2018-12-02T15:31:26.579Z,99.69
2018-12-02T15:33:55.469Z,99.68
2018-12-02T15:36:24.410Z,100.00
2018-12-02T15:38:53.554Z,99.57
2018-12-02T15:41:22.513Z,99.41
2018-12-02T15:43:51.691Z,99.92
2018-12-02T15:46:22.042Z,100.00
2018-12-02T15:48:51.375Z,100.00
2018-12-02T15:51:20.291Z,100.00
2018-12-02T15:53:49.195Z,100.00
2018-12-02T15:56:18.107Z,100.00
2018-12-02T15:58:48.229Z,100.00
2018-12-02T16:01:18.794Z,100.00
2018-12-02T16:03:50.371Z,100.00
2018-12-02T16:06:19.966Z,100.00
2018-12-02T16:08:48.947Z,100.00
2018-12-02T16:11:18.025Z,100.00
2018-12-02T16:13:47.507Z,100.00
2018-12-02T16:16:16.579Z,100.00
2018-12-02T16:18:45.830Z,100.00
2018-12-02T16:21:14.788Z,100.00
2018-12-02T16:23:44.163Z,100.00
2018-12-02T16:26:13.801Z,100.00
2018-12-02T16:28:42.732Z,100.00
2018-12-02T16:31:11.704Z,100.00
2018-12-02T16:33:40.937Z,100.00
2018-12-02T16:36:09.875Z,100.00
2018-12-02T16:38:38.861Z,100.00
2018-12-02T16:41:08.439Z,100.00
2018-12-02T16:43:37.374Z,100.00
2018-12-02T16:46:06.621Z,100.00
2018-12-02T16:48:35.591Z,100.00
2018-12-02T16:51:04.655Z,100.00
2018-12-02T16:53:34.316Z,100.00
2018-12-02T16:56:19.262Z,100.00
2018-12-02T16:59:51.147Z,100.00
2018-12-02T17:02:22.644Z,100.00
2018-12-02T17:04:53.068Z,100.00
2018-12-02T17:07:21.995Z,100.00
2018-12-02T17:09:50.903Z,100.00
2018-12-02T17:12:19.939Z,100.00
2018-12-02T17:14:51.194Z,100.00
2018-12-02T17:17:20.546Z,100.00
2018-12-02T17:19:49.503Z,100.00
2018-12-02T17:22:19.070Z,100.00
2018-12-02T17:24:48.021Z,100.00
2018-12-02T17:27:16.996Z,100.00
2018-12-02T17:29:45.903Z,100.00
2018-12-02T17:32:15.605Z,100.00
2018-12-02T17:34:47.112Z,99.88
2018-12-02T17:37:16.122Z,100.00
2018-12-02T17:39:51.560Z,99.19
2018-12-02T17:42:20.481Z,99.82
2018-12-02T17:44:49.456Z,99.76
2018-12-02T17:47:18.351Z,99.56
2018-12-02T17:49:49.348Z,99.59
2018-12-02T17:52:19.158Z,99.37
2018-12-02T17:54:48.121Z,99.80
2018-12-02T17:57:17.123Z,99.26
2018-12-02T17:59:46.381Z,100.00
2018-12-02T18:02:15.773Z,100.00
2018-12-02T18:04:45.094Z,100.00
2018-12-02T18:07:14.398Z,100.00
2018-12-02T18:09:43.371Z,100.00
2018-12-02T18:12:12.309Z,100.00
2018-12-02T18:14:43.253Z,100.00
2018-12-02T18:17:13.762Z,100.00
2018-12-02T18:19:44.030Z,100.00
2018-12-02T18:22:12.944Z,100.00
2018-12-02T18:24:41.945Z,100.00
2018-12-02T18:27:10.932Z,100.00
2018-12-02T18:29:39.867Z,100.00
2018-12-02T18:32:09.922Z,100.00
2018-12-02T18:34:40.504Z,100.00
2018-12-02T18:37:11.002Z,100.00
2018-12-02T18:39:39.985Z,100.00
2018-12-02T18:48:15.959Z,99.44
2018-12-02T18:50:45.959Z,98.81
2018-12-02T18:53:16.227Z,99.06
2018-12-02T18:55:45.589Z,98.86
2018-12-02T18:58:14.777Z,98.60
2018-12-02T19:00:48.882Z,99.15
2018-12-02T19:03:20.656Z,100.00
2018-12-02T19:05:50.758Z,100.00
2018-12-02T19:08:21.121Z,100.00
2018-12-02T19:10:53.595Z,100.00
2018-12-02T19:13:22.992Z,100.00
2018-12-02T19:15:52.286Z,100.00
2018-12-02T19:18:21.635Z,100.00
2018-12-02T19:20:53.815Z,100.00
2018-12-02T19:23:26.177Z,100.00
2018-12-02T19:25:55.592Z,100.00
2018-12-02T19:28:24.927Z,100.00
2018-12-02T19:30:54.323Z,100.00
2018-12-02T19:33:25.827Z,100.00
2018-12-02T19:35:59.488Z,100.00
2018-12-02T19:38:28.804Z,100.00
2018-12-02T19:40:58.234Z,100.00
2018-12-02T19:43:27.460Z,100.00
2018-12-02T19:45:56.895Z,100.00
2018-12-02T19:48:27.575Z,100.00
2018-12-02T19:50:58.836Z,100.00
2018-12-02T19:53:29.275Z,100.00
2018-12-02T19:55:58.593Z,100.00
2018-12-02T19:58:27.851Z,100.00
2018-12-02T20:00:58.377Z,100.00
2018-12-02T20:03:26.459Z,100.00
2018-12-02T20:05:55.762Z,100.00
2018-12-02T20:08:25.547Z,100.00
2018-12-02T20:10:55.629Z,100.00
2018-12-02T20:13:25.315Z,100.00
2018-12-02T20:16:00.055Z,100.00
2018-12-02T20:18:30.239Z,100.00
2018-12-02T20:21:00.973Z,100.00
2018-12-02T20:23:35.774Z,100.00
2018-12-02T20:26:05.302Z,100.00
2018-12-02T20:28:41.085Z,100.00
2018-12-02T20:31:15.875Z,100.00
2018-12-02T20:33:45.601Z,100.00
2018-12-02T20:36:14.951Z,100.00
2018-12-02T20:38:44.354Z,100.00
2018-12-02T20:41:13.707Z,100.00
2018-12-02T20:43:43.585Z,100.00
2018-12-02T20:46:13.058Z,100.00
2018-12-02T20:48:42.285Z,100.00
2018-12-02T20:51:11.975Z,100.00
2018-12-02T20:53:41.368Z,100.00
2018-12-02T20:56:10.558Z,100.00
2018-12-02T20:58:39.579Z,100.00
2018-12-02T21:01:09.235Z,100.00
2018-12-02T21:03:41.057Z,100.00
2018-12-02T21:06:14.702Z,100.00
2018-12-02T21:08:44.598Z,100.00
2018-12-02T21:11:13.638Z,100.00
2018-12-02T21:13:42.621Z,100.00
2018-12-02T21:16:11.987Z,100.00
2018-12-02T21:18:40.908Z,100.00
2018-12-02T21:21:09.867Z,100.00
2018-12-02T21:23:40.982Z,100.00
2018-12-02T21:26:10.818Z,100.00
2018-12-02T21:28:41.060Z,100.00
2018-12-02T21:31:10.146Z,100.00
2018-12-02T21:33:39.337Z,100.00
2018-12-02T21:36:08.551Z,100.00
2018-12-02T21:38:39.433Z,100.00
2018-12-02T21:41:08.420Z,100.00
2018-12-02T21:43:37.351Z,100.00
2018-12-02T21:46:06.485Z,100.00
2018-12-02T21:48:35.405Z,100.00
2018-12-02T21:51:04.399Z,100.00
2018-12-02T21:53:34.559Z,100.00
2018-12-02T21:56:03.471Z,100.00
2018-12-02T21:58:34.976Z,100.00
2018-12-02T22:01:09.100Z,100.00
2018-12-02T22:03:39.171Z,100.00
2018-12-02T22:06:08.157Z,100.00
2018-12-02T22:08:37.115Z,100.00
2018-12-02T22:11:07.267Z,100.00
2018-12-02T22:13:43.207Z,100.00
2018-12-02T22:16:06.876Z,100.00
2018-12-02T22:18:35.803Z,100.00
2018-12-02T22:21:04.798Z,100.00
2018-12-02T22:23:33.729Z,100.00
2018-12-02T22:26:02.678Z,100.00
2018-12-02T22:28:31.585Z,100.00
2018-12-02T22:31:00.500Z,100.00
2018-12-02T22:33:30.373Z,100.00
2018-12-02T22:36:01.118Z,100.00
2018-12-02T22:38:30.048Z,100.00
2018-12-02T22:40:59.121Z,100.00
2018-12-02T22:43:28.074Z,100.00
2018-12-02T22:45:57.024Z,100.00
2018-12-02T22:48:26.281Z,100.00
2018-12-02T22:50:57.951Z,100.00
2018-12-02T22:53:26.866Z,100.00
2018-12-02T22:55:55.769Z,100.00
2018-12-02T22:58:24.728Z,100.00
2018-12-02T23:00:59.971Z,100.00
2018-12-02T23:03:28.914Z,100.00
2018-12-02T23:05:58.774Z,100.00
2018-12-02T23:08:27.843Z,100.00
2018-12-02T23:10:56.849Z,100.00
2018-12-02T23:13:26.901Z,100.00
2018-12-02T23:15:57.336Z,100.00
2018-12-02T23:18:26.381Z,100.00
2018-12-02T23:20:55.405Z,100.00
2018-12-02T23:23:24.420Z,100.00
2018-12-02T23:26:28.890Z,100.00
2018-12-02T23:28:56.582Z,100.00
2018-12-02T23:37:14.401Z,100.00
2018-12-02T23:39:42.123Z,100.00
2018-12-02T23:42:09.954Z,100.00
2018-12-02T23:44:37.721Z,100.00
2018-12-02T23:47:24.984Z,100.00
2018-12-02T23:49:52.737Z,100.00
2018-12-02T23:52:20.496Z,100.00
2018-12-02T23:55:29.713Z,100.00
2018-12-02T23:58:18.500Z,100.00
